sensor_id;sensor_type;location;lat;lon;timestamp;P1;durP1;ratioP1;P2;durP2;ratioP2
16346;SDS011;8283;48.504;13.734;2023-08-31T00:00:25;3.42;;;2.35;;
16346;SDS011;8283;48.504;13.734;2023-08-31T00:03:11;2.40;;;2.05;;
16346;SDS011;8283;48.504;13.734;2023-08-31T00:06:00;4.88;;;2.50;;
16346;SDS011;8283;48.504;13.734;2023-08-31T00:08:48;2.55;;;2.35;;
16346;SDS011;8283;48.504;13.734;2023-08-31T00:11:33;2.30;;;2.10;;
16346;SDS011;8283;48.504;13.734;2023-08-31T00:14:18;2.40;;;2.17;;
16346;SDS011;8283;48.504;13.734;2023-08-31T00:17:03;2.35;;;2.15;;
16346;SDS011;8283;48.504;13.734;2023-08-31T00:19:48;2.60;;;2.30;;
16346;SDS011;8283;48.504;13.734;2023-08-31T00:22:33;2.28;;;2.08;;
16346;SDS011;8283;48.504;13.734;2023-08-31T00:25:18;2.25;;;2.05;;
16346;SDS011;8283;48.504;13.734;2023-08-31T00:28:03;3.28;;;2.17;;
16346;SDS011;8283;48.504;13.734;2023-08-31T00:30:49;2.50;;;2.30;;
16346;SDS011;8283;48.504;13.734;2023-08-31T00:33:35;2.22;;;2.03;;
16346;SDS011;8283;48.504;13.734;2023-08-31T00:36:20;2.33;;;2.13;;
16346;SDS011;8283;48.504;13.734;2023-08-31T00:39:05;2.10;;;1.90;;
16346;SDS011;8283;48.504;13.734;2023-08-31T00:41:52;2.78;;;1.95;;
16346;SDS011;8283;48.504;13.734;2023-08-31T00:44:38;2.90;;;1.95;;
16346;SDS011;8283;48.504;13.734;2023-08-31T00:47:23;2.03;;;1.83;;
16346;SDS011;8283;48.504;13.734;2023-08-31T00:50:08;2.40;;;2.20;;
16346;SDS011;8283;48.504;13.734;2023-08-31T00:52:53;2.45;;;2.20;;
16346;SDS011;8283;48.504;13.734;2023-08-31T00:55:38;2.08;;;1.88;;
16346;SDS011;8283;48.504;13.734;2023-08-31T00:58:26;2.17;;;1.70;;
16346;SDS011;8283;48.504;13.734;2023-08-31T01:01:18;1.88;;;1.77;;
16346;SDS011;8283;48.504;13.734;2023-08-31T01:07:30;2.20;;;2.00;;
16346;SDS011;8283;48.504;13.734;2023-08-31T01:13:32;2.28;;;2.08;;
16346;SDS011;8283;48.504;13.734;2023-08-31T01:16:20;2.88;;;1.85;;
16346;SDS011;8283;48.504;13.734;2023-08-31T01:25:26;2.08;;;1.88;;
16346;SDS011;8283;48.504;13.734;2023-08-31T01:28:11;2.28;;;2.08;;
16346;SDS011;8283;48.504;13.734;2023-08-31T01:30:56;2.13;;;1.92;;
16346;SDS011;8283;48.504;13.734;2023-08-31T01:33:41;4.68;;;2.35;;
16346;SDS011;8283;48.504;13.734;2023-08-31T01:36:27;1.90;;;1.80;;
16346;SDS011;8283;48.504;13.734;2023-08-31T01:42:04;2.35;;;2.15;;
16346;SDS011;8283;48.504;13.734;2023-08-31T01:44:50;5.82;;;2.03;;
16346;SDS011;8283;48.504;13.734;2023-08-31T01:47:35;3.70;;;2.17;;
16346;SDS011;8283;48.504;13.734;2023-08-31T01:50:20;1.92;;;1.70;;
16346;SDS011;8283;48.504;13.734;2023-08-31T01:53:05;2.30;;;2.10;;
16346;SDS011;8283;48.504;13.734;2023-08-31T01:55:51;2.03;;;1.70;;
16346;SDS011;8283;48.504;13.734;2023-08-31T01:58:35;2.10;;;1.90;;
16346;SDS011;8283;48.504;13.734;2023-08-31T02:01:19;2.08;;;1.88;;
16346;SDS011;8283;48.504;13.734;2023-08-31T02:04:04;2.25;;;2.00;;
16346;SDS011;8283;48.504;13.734;2023-08-31T02:06:49;2.20;;;2.00;;
16346;SDS011;8283;48.504;13.734;2023-08-31T02:09:33;2.28;;;2.08;;
16346;SDS011;8283;48.504;13.734;2023-08-31T02:12:17;2.58;;;2.38;;
16346;SDS011;8283;48.504;13.734;2023-08-31T02:15:03;3.28;;;1.90;;
16346;SDS011;8283;48.504;13.734;2023-08-31T02:17:49;3.78;;;2.00;;
16346;SDS011;8283;48.504;13.734;2023-08-31T02:20:33;2.40;;;2.20;;
16346;SDS011;8283;48.504;13.734;2023-08-31T02:23:17;3.25;;;1.83;;
16346;SDS011;8283;48.504;13.734;2023-08-31T02:26:02;2.50;;;1.80;;
16346;SDS011;8283;48.504;13.734;2023-08-31T02:28:47;2.22;;;1.85;;
16346;SDS011;8283;48.504;13.734;2023-08-31T02:31:32;3.65;;;2.30;;
16346;SDS011;8283;48.504;13.734;2023-08-31T02:34:17;2.03;;;1.83;;
16346;SDS011;8283;48.504;13.734;2023-08-31T02:37:02;2.47;;;2.28;;
16346;SDS011;8283;48.504;13.734;2023-08-31T02:39:47;2.17;;;2.00;;
16346;SDS011;8283;48.504;13.734;2023-08-31T02:42:32;2.75;;;1.67;;
16346;SDS011;8283;48.504;13.734;2023-08-31T02:45:17;2.00;;;1.88;;
16346;SDS011;8283;48.504;13.734;2023-08-31T02:48:02;1.80;;;1.70;;
16346;SDS011;8283;48.504;13.734;2023-08-31T02:50:48;2.03;;;1.83;;
16346;SDS011;8283;48.504;13.734;2023-08-31T02:53:33;2.60;;;2.40;;
16346;SDS011;8283;48.504;13.734;2023-08-31T02:56:18;2.10;;;1.90;;
16346;SDS011;8283;48.504;13.734;2023-08-31T02:59:03;2.60;;;2.40;;
16346;SDS011;8283;48.504;13.734;2023-08-31T03:01:48;2.10;;;1.70;;
16346;SDS011;8283;48.504;13.734;2023-08-31T03:04:33;2.80;;;2.58;;
16346;SDS011;8283;48.504;13.734;2023-08-31T03:07:18;2.65;;;1.75;;
16346;SDS011;8283;48.504;13.734;2023-08-31T03:10:03;3.28;;;2.08;;
16346;SDS011;8283;48.504;13.734;2023-08-31T03:12:49;3.35;;;2.83;;
16346;SDS011;8283;48.504;13.734;2023-08-31T03:15:34;3.10;;;2.80;;
16346;SDS011;8283;48.504;13.734;2023-08-31T03:18:19;1.65;;;1.55;;
16346;SDS011;8283;48.504;13.734;2023-08-31T03:21:05;2.50;;;2.30;;
16346;SDS011;8283;48.504;13.734;2023-08-31T03:23:50;2.97;;;2.22;;
16346;SDS011;8283;48.504;13.734;2023-08-31T03:26:36;2.00;;;1.77;;
16346;SDS011;8283;48.504;13.734;2023-08-31T03:29:21;5.70;;;2.83;;
16346;SDS011;8283;48.504;13.734;2023-08-31T03:32:06;2.72;;;2.33;;
16346;SDS011;8283;48.504;13.734;2023-08-31T03:34:51;2.22;;;2.03;;
16346;SDS011;8283;48.504;13.734;2023-08-31T03:37:36;2.45;;;2.25;;
16346;SDS011;8283;48.504;13.734;2023-08-31T03:40:21;2.42;;;2.22;;
16346;SDS011;8283;48.504;13.734;2023-08-31T03:43:08;3.92;;;2.55;;
16346;SDS011;8283;48.504;13.734;2023-08-31T03:45:56;3.28;;;2.50;;
16346;SDS011;8283;48.504;13.734;2023-08-31T03:48:41;2.88;;;2.10;;
16346;SDS011;8283;48.504;13.734;2023-08-31T03:51:26;3.33;;;2.40;;
16346;SDS011;8283;48.504;13.734;2023-08-31T03:54:11;2.47;;;2.28;;
16346;SDS011;8283;48.504;13.734;2023-08-31T03:56:57;2.70;;;2.03;;
16346;SDS011;8283;48.504;13.734;2023-08-31T03:59:42;2.58;;;2.20;;
16346;SDS011;8283;48.504;13.734;2023-08-31T04:02:27;2.35;;;2.15;;
16346;SDS011;8283;48.504;13.734;2023-08-31T04:05:13;2.65;;;2.35;;
16346;SDS011;8283;48.504;13.734;2023-08-31T04:08:01;2.38;;;2.17;;
16346;SDS011;8283;48.504;13.734;2023-08-31T04:10:47;2.83;;;1.98;;
16346;SDS011;8283;48.504;13.734;2023-08-31T04:13:32;3.65;;;2.55;;
16346;SDS011;8283;48.504;13.734;2023-08-31T04:16:17;4.38;;;2.72;;
16346;SDS011;8283;48.504;13.734;2023-08-31T04:19:02;3.65;;;2.80;;
16346;SDS011;8283;48.504;13.734;2023-08-31T04:21:48;2.67;;;2.47;;
16346;SDS011;8283;48.504;13.734;2023-08-31T04:24:33;2.80;;;2.60;;
16346;SDS011;8283;48.504;13.734;2023-08-31T04:27:18;4.72;;;2.30;;
16346;SDS011;8283;48.504;13.734;2023-08-31T04:30:03;12.02;;;3.30;;
16346;SDS011;8283;48.504;13.734;2023-08-31T04:32:48;2.47;;;2.28;;
16346;SDS011;8283;48.504;13.734;2023-08-31T04:35:33;2.67;;;2.47;;
16346;SDS011;8283;48.504;13.734;2023-08-31T04:38:17;2.28;;;2.08;;
16346;SDS011;8283;48.504;13.734;2023-08-31T04:41:01;2.00;;;1.73;;
16346;SDS011;8283;48.504;13.734;2023-08-31T04:43:46;3.55;;;2.92;;
16346;SDS011;8283;48.504;13.734;2023-08-31T04:46:31;4.05;;;3.17;;
16346;SDS011;8283;48.504;13.734;2023-08-31T04:49:17;3.13;;;2.80;;
16346;SDS011;8283;48.504;13.734;2023-08-31T04:52:02;3.03;;;2.72;;
16346;SDS011;8283;48.504;13.734;2023-08-31T04:54:46;2.80;;;2.58;;
16346;SDS011;8283;48.504;13.734;2023-08-31T04:57:31;3.42;;;3.10;;
16346;SDS011;8283;48.504;13.734;2023-08-31T05:00:15;5.15;;;3.90;;
16346;SDS011;8283;48.504;13.734;2023-08-31T05:03:00;4.45;;;3.72;;
16346;SDS011;8283;48.504;13.734;2023-08-31T05:05:44;3.75;;;3.45;;
16346;SDS011;8283;48.504;13.734;2023-08-31T05:08:28;3.80;;;3.47;;
16346;SDS011;8283;48.504;13.734;2023-08-31T05:11:12;3.80;;;3.22;;
16346;SDS011;8283;48.504;13.734;2023-08-31T05:13:56;3.85;;;3.55;;
16346;SDS011;8283;48.504;13.734;2023-08-31T05:16:41;4.78;;;3.65;;
16346;SDS011;8283;48.504;13.734;2023-08-31T05:19:26;4.05;;;3.35;;
16346;SDS011;8283;48.504;13.734;2023-08-31T05:22:11;3.80;;;3.50;;
16346;SDS011;8283;48.504;13.734;2023-08-31T05:24:55;3.78;;;3.03;;
16346;SDS011;8283;48.504;13.734;2023-08-31T05:27:40;3.10;;;2.80;;
16346;SDS011;8283;48.504;13.734;2023-08-31T05:30:25;2.75;;;2.55;;
16346;SDS011;8283;48.504;13.734;2023-08-31T05:33:10;3.05;;;2.83;;
16346;SDS011;8283;48.504;13.734;2023-08-31T05:35:55;3.55;;;3.25;;
16346;SDS011;8283;48.504;13.734;2023-08-31T05:38:39;3.55;;;3.10;;
16346;SDS011;8283;48.504;13.734;2023-08-31T05:41:23;2.85;;;2.65;;
16346;SDS011;8283;48.504;13.734;2023-08-31T05:44:09;2.78;;;2.58;;
16346;SDS011;8283;48.504;13.734;2023-08-31T05:46:54;3.28;;;2.55;;
16346;SDS011;8283;48.504;13.734;2023-08-31T05:49:38;2.80;;;2.55;;
16346;SDS011;8283;48.504;13.734;2023-08-31T05:52:22;3.60;;;3.05;;
16346;SDS011;8283;48.504;13.734;2023-08-31T05:55:06;3.40;;;2.78;;
16346;SDS011;8283;48.504;13.734;2023-08-31T05:57:51;3.13;;;2.50;;
16346;SDS011;8283;48.504;13.734;2023-08-31T06:00:35;2.22;;;2.03;;
16346;SDS011;8283;48.504;13.734;2023-08-31T06:03:20;2.50;;;2.30;;
16346;SDS011;8283;48.504;13.734;2023-08-31T06:06:04;2.90;;;2.13;;
16346;SDS011;8283;48.504;13.734;2023-08-31T06:08:49;2.72;;;2.33;;
16346;SDS011;8283;48.504;13.734;2023-08-31T06:11:33;2.00;;;1.85;;
16346;SDS011;8283;48.504;13.734;2023-08-31T06:14:18;1.85;;;1.75;;
16346;SDS011;8283;48.504;13.734;2023-08-31T06:17:03;2.25;;;2.05;;
16346;SDS011;8283;48.504;13.734;2023-08-31T06:19:47;2.38;;;2.17;;
16346;SDS011;8283;48.504;13.734;2023-08-31T06:22:35;1.92;;;1.83;;
16346;SDS011;8283;48.504;13.734;2023-08-31T06:25:19;2.30;;;2.10;;
16346;SDS011;8283;48.504;13.734;2023-08-31T06:28:06;2.20;;;2.00;;
16346;SDS011;8283;48.504;13.734;2023-08-31T06:30:52;2.40;;;2.15;;
16346;SDS011;8283;48.504;13.734;2023-08-31T06:33:36;2.83;;;2.30;;
16346;SDS011;8283;48.504;13.734;2023-08-31T06:36:21;2.78;;;1.85;;
16346;SDS011;8283;48.504;13.734;2023-08-31T06:39:07;2.40;;;2.20;;
16346;SDS011;8283;48.504;13.734;2023-08-31T06:41:52;2.83;;;2.45;;
16346;SDS011;8283;48.504;13.734;2023-08-31T06:44:39;2.67;;;2.00;;
16346;SDS011;8283;48.504;13.734;2023-08-31T06:47:24;2.38;;;2.17;;
16346;SDS011;8283;48.504;13.734;2023-08-31T06:50:09;2.85;;;2.15;;
16346;SDS011;8283;48.504;13.734;2023-08-31T06:52:54;2.33;;;1.90;;
16346;SDS011;8283;48.504;13.734;2023-08-31T06:55:39;1.80;;;1.70;;
16346;SDS011;8283;48.504;13.734;2023-08-31T06:58:24;1.52;;;1.15;;
16346;SDS011;8283;48.504;13.734;2023-08-31T07:01:09;1.58;;;1.40;;
16346;SDS011;8283;48.504;13.734;2023-08-31T07:03:56;1.70;;;1.30;;
16346;SDS011;8283;48.504;13.734;2023-08-31T07:06:41;2.78;;;1.48;;
16346;SDS011;8283;48.504;13.734;2023-08-31T07:09:26;1.10;;;1.00;;
16346;SDS011;8283;48.504;13.734;2023-08-31T07:12:11;1.13;;;1.02;;
16346;SDS011;8283;48.504;13.734;2023-08-31T07:14:56;1.25;;;1.15;;
16346;SDS011;8283;48.504;13.734;2023-08-31T07:17:41;0.95;;;0.85;;
16346;SDS011;8283;48.504;13.734;2023-08-31T07:20:26;1.10;;;1.00;;
16346;SDS011;8283;48.504;13.734;2023-08-31T07:23:11;4.40;;;1.00;;
16346;SDS011;8283;48.504;13.734;2023-08-31T07:25:56;2.35;;;1.17;;
16346;SDS011;8283;48.504;13.734;2023-08-31T07:28:45;1.60;;;0.98;;
16346;SDS011;8283;48.504;13.734;2023-08-31T07:31:31;1.58;;;1.00;;
16346;SDS011;8283;48.504;13.734;2023-08-31T07:34:15;1.08;;;0.70;;
16346;SDS011;8283;48.504;13.734;2023-08-31T07:37:00;0.75;;;0.75;;
16346;SDS011;8283;48.504;13.734;2023-08-31T07:39:44;0.80;;;0.70;;
16346;SDS011;8283;48.504;13.734;2023-08-31T07:42:30;1.10;;;0.85;;
16346;SDS011;8283;48.504;13.734;2023-08-31T07:45:14;0.95;;;0.85;;
16346;SDS011;8283;48.504;13.734;2023-08-31T07:47:58;1.10;;;0.93;;
16346;SDS011;8283;48.504;13.734;2023-08-31T07:50:43;0.98;;;0.80;;
16346;SDS011;8283;48.504;13.734;2023-08-31T07:53:27;1.30;;;0.98;;
16346;SDS011;8283;48.504;13.734;2023-08-31T07:56:12;0.95;;;0.85;;
16346;SDS011;8283;48.504;13.734;2023-08-31T07:58:57;1.42;;;1.10;;
16346;SDS011;8283;48.504;13.734;2023-08-31T08:01:41;1.20;;;1.10;;
16346;SDS011;8283;48.504;13.734;2023-08-31T08:04:25;1.00;;;0.95;;
16346;SDS011;8283;48.504;13.734;2023-08-31T08:07:10;0.93;;;0.80;;
16346;SDS011;8283;48.504;13.734;2023-08-31T08:09:54;1.85;;;1.00;;
16346;SDS011;8283;48.504;13.734;2023-08-31T08:12:39;1.88;;;1.10;;
16346;SDS011;8283;48.504;13.734;2023-08-31T08:15:27;1.75;;;1.20;;
16346;SDS011;8283;48.504;13.734;2023-08-31T08:18:11;1.60;;;1.00;;
16346;SDS011;8283;48.504;13.734;2023-08-31T08:20:55;1.35;;;1.00;;
16346;SDS011;8283;48.504;13.734;2023-08-31T08:23:40;1.73;;;1.10;;
16346;SDS011;8283;48.504;13.734;2023-08-31T08:26:24;1.92;;;1.00;;
16346;SDS011;8283;48.504;13.734;2023-08-31T08:29:08;0.98;;;0.85;;
16346;SDS011;8283;48.504;13.734;2023-08-31T08:31:53;1.42;;;0.85;;
16346;SDS011;8283;48.504;13.734;2023-08-31T08:34:38;1.17;;;0.90;;
16346;SDS011;8283;48.504;13.734;2023-08-31T08:37:22;1.08;;;0.90;;
16346;SDS011;8283;48.504;13.734;2023-08-31T08:40:06;2.08;;;1.05;;
16346;SDS011;8283;48.504;13.734;2023-08-31T08:42:51;1.30;;;0.90;;
16346;SDS011;8283;48.504;13.734;2023-08-31T08:45:37;1.00;;;0.90;;
16346;SDS011;8283;48.504;13.734;2023-08-31T08:48:24;1.20;;;1.10;;
16346;SDS011;8283;48.504;13.734;2023-08-31T08:51:09;1.42;;;0.98;;
16346;SDS011;8283;48.504;13.734;2023-08-31T08:53:54;1.25;;;0.90;;
16346;SDS011;8283;48.504;13.734;2023-08-31T08:56:41;1.05;;;1.00;;
16346;SDS011;8283;48.504;13.734;2023-08-31T08:59:25;1.00;;;0.90;;
16346;SDS011;8283;48.504;13.734;2023-08-31T09:02:10;1.00;;;0.90;;
16346;SDS011;8283;48.504;13.734;2023-08-31T09:04:55;1.25;;;1.05;;
16346;SDS011;8283;48.504;13.734;2023-08-31T09:08:02;1.55;;;1.08;;
16346;SDS011;8283;48.504;13.734;2023-08-31T09:10:45;1.35;;;1.10;;
16346;SDS011;8283;48.504;13.734;2023-08-31T09:13:29;0.93;;;0.90;;
16346;SDS011;8283;48.504;13.734;2023-08-31T09:16:24;1.40;;;1.00;;
16346;SDS011;8283;48.504;13.734;2023-08-31T09:22:03;2.80;;;1.33;;
16346;SDS011;8283;48.504;13.734;2023-08-31T09:24:48;1.58;;;0.93;;
16346;SDS011;8283;48.504;13.734;2023-08-31T09:27:36;1.55;;;1.10;;
16346;SDS011;8283;48.504;13.734;2023-08-31T09:30:22;1.40;;;1.08;;
16346;SDS011;8283;48.504;13.734;2023-08-31T09:33:13;2.40;;;1.52;;
16346;SDS011;8283;48.504;13.734;2023-08-31T09:36:00;1.58;;;0.95;;
16346;SDS011;8283;48.504;13.734;2023-08-31T09:38:45;1.25;;;1.15;;
16346;SDS011;8283;48.504;13.734;2023-08-31T09:41:30;1.30;;;1.10;;
16346;SDS011;8283;48.504;13.734;2023-08-31T09:44:15;1.77;;;1.10;;
16346;SDS011;8283;48.504;13.734;2023-08-31T09:47:01;1.13;;;1.02;;
16346;SDS011;8283;48.504;13.734;2023-08-31T09:49:47;2.75;;;1.10;;
16346;SDS011;8283;48.504;13.734;2023-08-31T09:52:32;1.02;;;0.82;;
16346;SDS011;8283;48.504;13.734;2023-08-31T09:55:18;1.33;;;1.00;;
16346;SDS011;8283;48.504;13.734;2023-08-31T09:58:04;1.33;;;0.98;;
16346;SDS011;8283;48.504;13.734;2023-08-31T10:00:52;1.73;;;1.02;;
16346;SDS011;8283;48.504;13.734;2023-08-31T10:03:37;1.80;;;1.10;;
16346;SDS011;8283;48.504;13.734;2023-08-31T10:06:23;1.38;;;1.17;;
16346;SDS011;8283;48.504;13.734;2023-08-31T10:09:09;1.25;;;0.90;;
16346;SDS011;8283;48.504;13.734;2023-08-31T10:11:54;1.58;;;1.17;;
16346;SDS011;8283;48.504;13.734;2023-08-31T10:14:40;2.20;;;1.13;;
16346;SDS011;8283;48.504;13.734;2023-08-31T10:17:25;1.48;;;0.90;;
16346;SDS011;8283;48.504;13.734;2023-08-31T10:20:11;1.85;;;1.20;;
16346;SDS011;8283;48.504;13.734;2023-08-31T10:22:59;1.58;;;1.20;;
16346;SDS011;8283;48.504;13.734;2023-08-31T10:31:27;1.52;;;1.25;;
16346;SDS011;8283;48.504;13.734;2023-08-31T10:34:13;2.47;;;1.35;;
16346;SDS011;8283;48.504;13.734;2023-08-31T10:36:58;2.70;;;1.65;;
16346;SDS011;8283;48.504;13.734;2023-08-31T10:39:42;1.73;;;1.25;;
16346;SDS011;8283;48.504;13.734;2023-08-31T10:42:26;3.03;;;1.40;;
16346;SDS011;8283;48.504;13.734;2023-08-31T10:45:11;1.48;;;1.17;;
16346;SDS011;8283;48.504;13.734;2023-08-31T10:47:56;1.95;;;1.48;;
16346;SDS011;8283;48.504;13.734;2023-08-31T10:50:46;2.67;;;1.52;;
16346;SDS011;8283;48.504;13.734;2023-08-31T10:53:35;2.03;;;1.40;;
16346;SDS011;8283;48.504;13.734;2023-08-31T10:56:19;1.20;;;1.00;;
16346;SDS011;8283;48.504;13.734;2023-08-31T10:59:04;2.45;;;1.30;;
16346;SDS011;8283;48.504;13.734;2023-08-31T11:05:01;4.95;;;1.30;;
16346;SDS011;8283;48.504;13.734;2023-08-31T11:07:53;2.75;;;1.10;;
16346;SDS011;8283;48.504;13.734;2023-08-31T11:10:39;1.67;;;1.20;;
16346;SDS011;8283;48.504;13.734;2023-08-31T11:13:24;1.65;;;1.10;;
16346;SDS011;8283;48.504;13.734;2023-08-31T11:16:08;2.22;;;1.13;;
16346;SDS011;8283;48.504;13.734;2023-08-31T11:18:53;2.80;;;1.20;;
16346;SDS011;8283;48.504;13.734;2023-08-31T11:21:37;3.00;;;1.23;;
16346;SDS011;8283;48.504;13.734;2023-08-31T11:24:22;1.75;;;1.10;;
16346;SDS011;8283;48.504;13.734;2023-08-31T11:27:07;1.50;;;1.15;;
16346;SDS011;8283;48.504;13.734;2023-08-31T11:29:52;1.52;;;1.10;;
16346;SDS011;8283;48.504;13.734;2023-08-31T11:32:36;1.85;;;1.10;;
16346;SDS011;8283;48.504;13.734;2023-08-31T11:35:22;2.20;;;0.95;;
16346;SDS011;8283;48.504;13.734;2023-08-31T11:38:08;1.45;;;1.27;;
16346;SDS011;8283;48.504;13.734;2023-08-31T11:40:55;2.03;;;1.20;;
16346;SDS011;8283;48.504;13.734;2023-08-31T11:43:40;1.30;;;1.00;;
16346;SDS011;8283;48.504;13.734;2023-08-31T11:46:25;2.03;;;1.10;;
16346;SDS011;8283;48.504;13.734;2023-08-31T11:49:10;1.52;;;0.95;;
16346;SDS011;8283;48.504;13.734;2023-08-31T11:51:54;2.40;;;1.15;;
16346;SDS011;8283;48.504;13.734;2023-08-31T11:54:40;1.73;;;1.05;;
16346;SDS011;8283;48.504;13.734;2023-08-31T11:57:26;1.85;;;1.35;;
16346;SDS011;8283;48.504;13.734;2023-08-31T12:00:12;2.15;;;1.65;;
16346;SDS011;8283;48.504;13.734;2023-08-31T12:03:01;1.40;;;1.10;;
16346;SDS011;8283;48.504;13.734;2023-08-31T12:05:47;2.05;;;0.90;;
16346;SDS011;8283;48.504;13.734;2023-08-31T12:08:38;2.55;;;1.10;;
16346;SDS011;8283;48.504;13.734;2023-08-31T12:11:22;2.13;;;0.93;;
16346;SDS011;8283;48.504;13.734;2023-08-31T12:14:23;2.00;;;1.13;;
16346;SDS011;8283;48.504;13.734;2023-08-31T12:17:08;2.22;;;1.30;;
16346;SDS011;8283;48.504;13.734;2023-08-31T12:19:53;1.52;;;1.00;;
16346;SDS011;8283;48.504;13.734;2023-08-31T12:22:48;1.42;;;1.00;;
16346;SDS011;8283;48.504;13.734;2023-08-31T12:25:33;1.83;;;0.90;;
16346;SDS011;8283;48.504;13.734;2023-08-31T12:28:21;1.30;;;1.05;;
16346;SDS011;8283;48.504;13.734;2023-08-31T12:31:06;1.50;;;0.90;;
16346;SDS011;8283;48.504;13.734;2023-08-31T12:33:50;1.25;;;1.10;;
16346;SDS011;8283;48.504;13.734;2023-08-31T12:36:35;1.80;;;1.20;;
16346;SDS011;8283;48.504;13.734;2023-08-31T12:39:23;2.20;;;1.00;;
16346;SDS011;8283;48.504;13.734;2023-08-31T12:42:07;1.90;;;1.30;;
16346;SDS011;8283;48.504;13.734;2023-08-31T12:44:53;1.70;;;1.20;;
16346;SDS011;8283;48.504;13.734;2023-08-31T12:47:37;2.13;;;1.00;;
16346;SDS011;8283;48.504;13.734;2023-08-31T12:50:22;2.25;;;1.08;;
16346;SDS011;8283;48.504;13.734;2023-08-31T12:53:08;4.25;;;1.30;;
16346;SDS011;8283;48.504;13.734;2023-08-31T12:55:53;1.55;;;1.02;;
16346;SDS011;8283;48.504;13.734;2023-08-31T12:58:38;1.42;;;0.90;;
16346;SDS011;8283;48.504;13.734;2023-08-31T13:01:23;2.03;;;1.30;;
16346;SDS011;8283;48.504;13.734;2023-08-31T13:04:09;1.65;;;1.10;;
16346;SDS011;8283;48.504;13.734;2023-08-31T13:06:55;1.95;;;1.20;;
16346;SDS011;8283;48.504;13.734;2023-08-31T13:09:39;1.40;;;1.10;;
16346;SDS011;8283;48.504;13.734;2023-08-31T13:12:24;1.85;;;1.30;;
16346;SDS011;8283;48.504;13.734;2023-08-31T13:15:10;2.30;;;1.05;;
16346;SDS011;8283;48.504;13.734;2023-08-31T13:17:55;2.22;;;1.20;;
16346;SDS011;8283;48.504;13.734;2023-08-31T13:20:39;1.50;;;1.10;;
16346;SDS011;8283;48.504;13.734;2023-08-31T13:23:25;3.10;;;1.10;;
16346;SDS011;8283;48.504;13.734;2023-08-31T13:26:10;2.05;;;1.45;;
16346;SDS011;8283;48.504;13.734;2023-08-31T13:28:54;1.90;;;1.23;;
16346;SDS011;8283;48.504;13.734;2023-08-31T13:31:39;2.22;;;1.20;;
16346;SDS011;8283;48.504;13.734;2023-08-31T13:34:24;2.40;;;1.40;;
16346;SDS011;8283;48.504;13.734;2023-08-31T13:37:09;1.85;;;1.00;;
16346;SDS011;8283;48.504;13.734;2023-08-31T13:39:53;1.92;;;1.20;;
16346;SDS011;8283;48.504;13.734;2023-08-31T13:42:43;1.88;;;1.00;;
16346;SDS011;8283;48.504;13.734;2023-08-31T13:45:36;2.28;;;1.05;;
16346;SDS011;8283;48.504;13.734;2023-08-31T13:48:20;1.85;;;1.23;;
16346;SDS011;8283;48.504;13.734;2023-08-31T13:51:06;1.88;;;1.10;;
16346;SDS011;8283;48.504;13.734;2023-08-31T13:53:51;2.13;;;1.17;;
16346;SDS011;8283;48.504;13.734;2023-08-31T13:56:35;2.10;;;0.98;;
16346;SDS011;8283;48.504;13.734;2023-08-31T13:59:20;1.67;;;1.20;;
16346;SDS011;8283;48.504;13.734;2023-08-31T14:02:04;2.00;;;0.95;;
16346;SDS011;8283;48.504;13.734;2023-08-31T14:04:49;2.40;;;1.00;;
16346;SDS011;8283;48.504;13.734;2023-08-31T14:07:33;1.92;;;1.05;;
16346;SDS011;8283;48.504;13.734;2023-08-31T14:10:18;1.15;;;0.85;;
16346;SDS011;8283;48.504;13.734;2023-08-31T14:13:02;1.73;;;0.90;;
16346;SDS011;8283;48.504;13.734;2023-08-31T14:15:47;1.70;;;0.93;;
16346;SDS011;8283;48.504;13.734;2023-08-31T14:18:31;1.13;;;0.95;;
16346;SDS011;8283;48.504;13.734;2023-08-31T14:21:15;1.33;;;0.90;;
16346;SDS011;8283;48.504;13.734;2023-08-31T14:24:00;1.45;;;1.15;;
16346;SDS011;8283;48.504;13.734;2023-08-31T14:26:44;2.03;;;1.13;;
16346;SDS011;8283;48.504;13.734;2023-08-31T14:29:29;1.02;;;0.70;;
16346;SDS011;8283;48.504;13.734;2023-08-31T14:32:13;1.02;;;0.80;;
16346;SDS011;8283;48.504;13.734;2023-08-31T14:34:58;3.17;;;1.33;;
16346;SDS011;8283;48.504;13.734;2023-08-31T14:37:42;4.45;;;1.08;;
16346;SDS011;8283;48.504;13.734;2023-08-31T14:40:28;2.20;;;1.20;;
16346;SDS011;8283;48.504;13.734;2023-08-31T14:43:13;2.53;;;0.85;;
16346;SDS011;8283;48.504;13.734;2023-08-31T14:45:57;2.92;;;1.00;;
16346;SDS011;8283;48.504;13.734;2023-08-31T14:48:44;1.48;;;1.02;;
16346;SDS011;8283;48.504;13.734;2023-08-31T14:51:30;1.55;;;1.10;;
16346;SDS011;8283;48.504;13.734;2023-08-31T14:54:15;3.50;;;1.45;;
16346;SDS011;8283;48.504;13.734;2023-08-31T14:56:59;1.77;;;0.95;;
16346;SDS011;8283;48.504;13.734;2023-08-31T14:59:44;3.00;;;1.15;;
16346;SDS011;8283;48.504;13.734;2023-08-31T15:02:29;2.35;;;1.05;;
16346;SDS011;8283;48.504;13.734;2023-08-31T15:05:14;1.42;;;1.00;;
16346;SDS011;8283;48.504;13.734;2023-08-31T15:07:58;4.13;;;1.00;;
16346;SDS011;8283;48.504;13.734;2023-08-31T15:10:43;1.55;;;1.20;;
16346;SDS011;8283;48.504;13.734;2023-08-31T15:13:27;3.05;;;1.20;;
16346;SDS011;8283;48.504;13.734;2023-08-31T15:16:11;2.38;;;1.15;;
16346;SDS011;8283;48.504;13.734;2023-08-31T15:18:56;1.83;;;0.73;;
16346;SDS011;8283;48.504;13.734;2023-08-31T15:21:41;2.30;;;1.60;;
16346;SDS011;8283;48.504;13.734;2023-08-31T15:24:25;2.08;;;1.13;;
16346;SDS011;8283;48.504;13.734;2023-08-31T15:27:09;1.67;;;1.00;;
16346;SDS011;8283;48.504;13.734;2023-08-31T15:29:54;1.75;;;1.02;;
16346;SDS011;8283;48.504;13.734;2023-08-31T15:32:38;2.13;;;1.10;;
16346;SDS011;8283;48.504;13.734;2023-08-31T15:35:23;1.10;;;0.90;;
16346;SDS011;8283;48.504;13.734;2023-08-31T15:38:08;2.47;;;1.05;;
16346;SDS011;8283;48.504;13.734;2023-08-31T15:40:52;2.35;;;0.90;;
16346;SDS011;8283;48.504;13.734;2023-08-31T15:43:37;1.05;;;0.88;;
16346;SDS011;8283;48.504;13.734;2023-08-31T15:46:22;1.30;;;1.13;;
16346;SDS011;8283;48.504;13.734;2023-08-31T15:49:06;1.10;;;0.88;;
16346;SDS011;8283;48.504;13.734;2023-08-31T15:51:50;1.70;;;1.10;;
16346;SDS011;8283;48.504;13.734;2023-08-31T15:54:35;1.10;;;0.70;;
16346;SDS011;8283;48.504;13.734;2023-08-31T15:57:20;2.53;;;1.48;;
16346;SDS011;8283;48.504;13.734;2023-08-31T16:00:05;1.38;;;0.85;;
16346;SDS011;8283;48.504;13.734;2023-08-31T16:02:51;2.97;;;1.20;;
16346;SDS011;8283;48.504;13.734;2023-08-31T16:05:36;4.05;;;2.97;;
16346;SDS011;8283;48.504;13.734;2023-08-31T16:08:21;4.47;;;2.90;;
16346;SDS011;8283;48.504;13.734;2023-08-31T16:11:05;2.85;;;1.90;;
16346;SDS011;8283;48.504;13.734;2023-08-31T16:13:49;5.45;;;1.70;;
16346;SDS011;8283;48.504;13.734;2023-08-31T16:16:33;3.30;;;1.77;;
16346;SDS011;8283;48.504;13.734;2023-08-31T16:19:17;1.25;;;1.08;;
16346;SDS011;8283;48.504;13.734;2023-08-31T16:22:01;1.10;;;0.88;;
16346;SDS011;8283;48.504;13.734;2023-08-31T16:24:46;2.60;;;1.10;;
16346;SDS011;8283;48.504;13.734;2023-08-31T16:27:30;1.42;;;0.98;;
16346;SDS011;8283;48.504;13.734;2023-08-31T16:30:15;1.10;;;0.98;;
16346;SDS011;8283;48.504;13.734;2023-08-31T16:32:59;1.63;;;1.02;;
16346;SDS011;8283;48.504;13.734;2023-08-31T16:35:44;1.70;;;1.23;;
16346;SDS011;8283;48.504;13.734;2023-08-31T16:38:28;2.33;;;0.90;;
16346;SDS011;8283;48.504;13.734;2023-08-31T16:41:13;1.15;;;0.90;;
16346;SDS011;8283;48.504;13.734;2023-08-31T16:43:57;1.83;;;1.20;;
16346;SDS011;8283;48.504;13.734;2023-08-31T16:46:42;3.08;;;0.90;;
16346;SDS011;8283;48.504;13.734;2023-08-31T16:49:27;1.67;;;1.10;;
16346;SDS011;8283;48.504;13.734;2023-08-31T16:52:11;1.73;;;0.90;;
16346;SDS011;8283;48.504;13.734;2023-08-31T16:54:55;1.20;;;0.98;;
16346;SDS011;8283;48.504;13.734;2023-08-31T16:57:42;1.35;;;0.98;;
16346;SDS011;8283;48.504;13.734;2023-08-31T17:00:26;1.25;;;1.00;;
16346;SDS011;8283;48.504;13.734;2023-08-31T17:03:10;3.45;;;1.00;;